Time;durP1;ratioP1;P1;durP2;ratioP2;P2;SDS_P1;SDS_P2;PMS_P1;PMS_P2;Temp;Humidity;BMP_temperature;BMP_pressure;BME280_temperature;BME280_humidity;BME280_pressure;Samples;Min_cycle;Max_cycle;Signal;HPM_P1;HPM_P2
2023/05/01 00:00:05;;;;;;;;;;;4.90;55.00;;;;;;4090207;28;19926;-88
2023/05/01 00:02:20;;;;;;;;;;;4.90;55.00;;;;;;4100793;28;19929;-85
2023/05/01 00:04:33;;;;;;;;;;;4.90;55.10;;;;;;4109246;28;20418;-86
2023/05/01 00:06:53;;;;;;;;;;;4.90;55.20;;;;;;4126217;28;19914;-86
2023/05/01 00:09:33;;;;;;;;;;;4.80;55.10;;;;;;4102011;28;19948;-84
2023/05/01 00:11:57;;;;;;;;;;;4.80;55.20;;;;;;4111076;28;20040;-86
2023/05/01 00:14:17;;;;;;;;;;;4.80;55.20;;;;;;4109223;28;19961;-85
2023/05/01 00:16:41;;;;;;;;;;;4.80;55.40;;;;;;4118654;28;19922;-84
2023/05/01 00:19:04;;;;;;;;;;;4.70;55.30;;;;;;4121392;28;19922;-85
2023/05/01 00:21:37;;;;;;;;;;;4.80;55.30;;;;;;4115940;28;19918;-84
2023/05/01 00:24:05;;;;;;;;;;;4.80;55.10;;;;;;4125853;28;19968;-85
2023/05/01 00:26:38;;;;;;;;;;;4.80;55.10;;;;;;4125683;28;19918;-85
2023/05/01 00:29:04;;;;;;;;;;;4.60;54.80;;;;;;4118487;28;19918;-86
2023/05/01 00:31:28;;;;;;;;;;;4.60;54.80;;;;;;4125755;28;19921;-85
2023/05/01 00:33:36;;;;;;;;;;;4.60;54.80;;;;;;4103923;28;19918;-85
2023/05/01 00:35:40;;;;;;;;;;;4.60;54.80;;;;;;4090137;28;19919;-84
2023/05/01 00:37:53;;;;;;;;;;;4.60;55.00;;;;;;4122728;28;20075;-83
2023/05/01 00:40:00;;;;;;;;;;;4.60;55.10;;;;;;4097843;28;19921;-84
2023/05/01 00:42:03;;;;;;;;;;;4.50;55.20;;;;;;4123685;28;19925;-86
2023/05/01 00:44:37;;;;;;;;;;;4.50;55.30;;;;;;4121719;28;20754;-84
2023/05/01 00:46:45;;;;;;;;;;;4.60;55.40;;;;;;4103613;28;20359;-84
2023/05/01 00:48:52;;;;;;;;;;;4.50;55.40;;;;;;4103556;28;19918;-87
2023/05/01 00:51:06;;;;;;;;;;;4.50;55.40;;;;;;4109890;28;19922;-84
2023/05/01 00:53:17;;;;;;;;;;;4.50;55.50;;;;;;4105708;28;19961;-84
2023/05/01 00:55:40;;;;;;;;;;;4.40;55.60;;;;;;4124495;28;19984;-84
2023/05/01 01:01:00;;;;;;;;;;;4.40;55.60;;;;;;4125207;28;19920;-85
2023/05/01 01:03:23;;;;;;;;;;;4.40;55.60;;;;;;4123663;28;19913;-85
2023/05/01 01:06:04;;;;;;;;;;;4.40;55.60;;;;;;4104752;28;19925;-85
2023/05/01 01:08:29;;;;;;;;;;;4.40;55.60;;;;;;4092539;28;19926;-86
2023/05/01 01:10:33;;;;;;;;;;;4.30;55.60;;;;;;4084617;28;19918;-88
2023/05/01 01:13:09;;;;;;;;;;;4.30;55.70;;;;;;4123633;28;20062;-84
2023/05/01 01:15:49;;;;;;;;;;;4.30;55.70;;;;;;4120580;28;19921;-88
2023/05/01 01:18:33;;;;;;;;;;;4.30;55.70;;;;;;4121041;28;19922;-84
2023/05/01 01:21:07;;;;;;;;;;;4.30;55.70;;;;;;4039450;29;19919;-84
2023/05/01 01:24:09;;;;;;;;;;;4.30;55.70;;;;;;4039474;29;19919;-84
2023/05/01 01:27:01;;;;;;;;;;;4.20;55.80;;;;;;4027524;29;19920;-85
2023/05/01 01:29:43;;;;;;;;;;;4.20;55.80;;;;;;4032129;29;20345;-84
2023/05/01 01:32:23;;;;;;;;;;;4.20;55.60;;;;;;4031457;29;19916;-84
2023/05/01 01:34:51;;;;;;;;;;;4.20;55.50;;;;;;4035908;29;19929;-86
2023/05/01 01:37:41;;;;;;;;;;;;;;;;;;;;;
2023/05/01 01:40:12;;;;;;;;;;;4.00;55.00;;;;;;4046831;29;19927;-86
2023/05/01 01:42:36;;;;;;;;;;;4.10;55.20;;;;;;4018214;29;19916;-87
2023/05/01 01:45:04;;;;;;;;;;;4.00;55.30;;;;;;4004158;29;19952;-84
2023/05/01 01:47:34;;;;;;;;;;;4.10;55.30;;;;;;4004237;29;19920;-88
2023/05/01 01:49:48;;;;;;;;;;;4.00;55.40;;;;;;4001324;29;19924;-84
2023/05/01 01:51:52;;;;;;;;;;;4.00;55.40;;;;;;4015429;29;19927;-85
2023/05/01 01:54:32;;;;;;;;;;;;;;;;;;;;;
2023/05/01 01:56:44;;;;;;;;;;;4.00;55.50;;;;;;4015853;29;20160;-85
2023/05/01 01:59:19;;;;;;;;;;;4.00;55.70;;;;;;4067035;29;19923;-85
2023/05/01 02:01:23;;;;;;;;;;;3.90;55.90;;;;;;4060501;29;19919;-87
2023/05/01 02:03:48;;;;;;;;;;;4.00;56.00;;;;;;4060830;29;19919;-85
2023/05/01 02:06:24;;;;;;;;;;;4.00;56.10;;;;;;4066851;29;19919;-87
2023/05/01 02:08:51;;;;;;;;;;;3.90;56.00;;;;;;4059850;29;19923;-85
2023/05/01 02:11:22;;;;;;;;;;;4.00;56.20;;;;;;4078708;29;19969;-86
2023/05/01 02:13:47;;;;;;;;;;;3.90;56.30;;;;;;4064450;29;19938;-86
2023/05/01 02:16:24;;;;;;;;;;;;;;;;;;;;;
2023/05/01 02:18:49;;;;;;;;;;;4.00;56.40;;;;;;4079287;29;19977;-85
2023/05/01 02:21:13;;;;;;;;;;;3.90;56.50;;;;;;4083721;28;19931;-85
2023/05/01 02:23:37;;;;;;;;;;;3.90;56.80;;;;;;4110879;28;19972;-86
2023/05/01 02:26:04;;;;;;;;;;;4.00;57.10;;;;;;4111717;28;20422;-86
2023/05/01 02:28:40;;;;;;;;;;;3.90;57.20;;;;;;4127011;28;20388;-84
2023/05/01 02:31:10;;;;;;;;;;;3.90;57.00;;;;;;4107246;28;19922;-85
2023/05/01 02:33:45;;;;;;;;;;;4.00;56.90;;;;;;4122450;28;19937;-84
2023/05/01 02:36:12;;;;;;;;;;;3.80;56.80;;;;;;4122012;28;20005;-83
2023/05/01 02:38:15;;;;;;;;;;;3.90;56.80;;;;;;4089206;28;20016;-85
2023/05/01 02:40:28;;;;;;;;;;;3.90;56.80;;;;;;4109347;28;19918;-84
2023/05/01 02:42:35;;;;;;;;;;;3.90;56.80;;;;;;4107518;28;19922;-86
2023/05/01 02:45:12;;;;;;;;;;;3.90;56.80;;;;;;4106848;28;19929;-88
2023/05/01 02:47:44;;;;;;;;;;;3.90;56.70;;;;;;4107503;28;20306;-86
2023/05/01 02:50:16;;;;;;;;;;;3.90;56.70;;;;;;4108138;28;19914;-88
2023/05/01 02:52:46;;;;;;;;;;;3.90;56.80;;;;;;4108769;28;19922;-85
2023/05/01 02:55:10;;;;;;;;;;;3.90;56.80;;;;;;4108867;28;19918;-85
2023/05/01 02:57:41;;;;;;;;;;;3.90;56.90;;;;;;4110926;28;20192;-87
2023/05/01 03:00:02;;;;;;;;;;;3.90;57.00;;;;;;4123248;28;19921;-88
2023/05/01 03:02:22;;;;;;;;;;;3.80;57.10;;;;;;4117261;28;19941;-85
2023/05/01 03:04:52;;;;;;;;;;;3.90;57.10;;;;;;4124878;28;20116;-85
2023/05/01 03:07:15;;;;;;;;;;;3.80;57.10;;;;;;4125959;28;19957;-86
2023/05/01 03:09:20;;;;;;;;;;;3.80;57.20;;;;;;4106502;28;19926;-87
2023/05/01 03:11:35;;;;;;;;;;;3.80;57.20;;;;;;4109816;28;19925;-86
2023/05/01 03:14:04;;;;;;;;;;;3.80;57.10;;;;;;4122454;28;20025;-85
2023/05/01 03:16:13;;;;;;;;;;;3.80;57.20;;;;;;4107362;28;19924;-85
2023/05/01 03:18:33;;;;;;;;;;;3.80;57.10;;;;;;4121873;28;19921;-84
2023/05/01 03:21:00;;;;;;;;;;;3.80;56.90;;;;;;4108817;28;19965;-84
2023/05/01 03:23:37;;;;;;;;;;;3.80;57.10;;;;;;4123667;28;19949;-87
2023/05/01 03:25:58;;;;;;;;;;;3.70;57.00;;;;;;4108231;28;19952;-86
2023/05/01 03:28:33;;;;;;;;;;;3.80;57.00;;;;;;4125409;28;19997;-85
2023/05/01 03:30:54;;;;;;;;;;;3.70;57.10;;;;;;4118972;28;19915;-85
2023/05/01 03:33:21;;;;;;;;;;;3.70;57.20;;;;;;4126142;28;19925;-84
2023/05/01 03:36:16;;;;;;;;;;;3.80;57.40;;;;;;4123462;28;20064;-85
2023/05/01 03:38:51;;;;;;;;;;;3.70;57.70;;;;;;4129265;28;19953;-85
2023/05/01 03:41:22;;;;;;;;;;;3.80;57.40;;;;;;4132216;28;20656;-87
2023/05/01 03:44:09;;;;;;;;;;;3.80;57.70;;;;;;4119908;28;19945;-85
2023/05/01 03:46:33;;;;;;;;;;;3.60;57.50;;;;;;4125464;28;19941;-85
2023/05/01 03:48:56;;;;;;;;;;;3.70;57.60;;;;;;4122140;28;19949;-85
2023/05/01 03:51:23;;;;;;;;;;;3.70;57.70;;;;;;4107478;28;19922;-87
2023/05/01 03:53:55;;;;;;;;;;;3.60;57.60;;;;;;4120413;28;19933;-84
2023/05/01 03:56:18;;;;;;;;;;;3.60;57.60;;;;;;4120843;28;20010;-85
2023/05/01 03:58:52;;;;;;;;;;;;;;;;;;;;;
2023/05/01 04:00:59;;;;;;;;;;;3.60;57.60;;;;;;4118961;28;19922;-86
2023/05/01 04:03:10;;;;;;;;;;;3.70;57.60;;;;;;4103990;28;20016;-84
2023/05/01 04:05:29;;;;;;;;;;;3.70;58.10;;;;;;4107844;28;19954;-85
2023/05/01 04:07:33;;;;;;;;;;;3.60;58.20;;;;;;4102318;28;19958;-85
2023/05/01 04:09:40;;;;;;;;;;;3.70;58.70;;;;;;4090574;28;19931;-88
2023/05/01 04:11:54;;;;;;;;;;;3.70;58.40;;;;;;4107036;28;20049;-85
2023/05/01 04:13:57;;;;;;;;;;;3.70;58.20;;;;;;4120469;28;19924;-84
2023/05/01 04:16:07;;;;;;;;;;;3.60;59.20;;;;;;4109322;28;20016;-84
2023/05/01 04:18:25;;;;;;;;;;;3.60;59.20;;;;;;4105834;28;19968;-85
2023/05/01 04:20:26;;;;;;;;;;;3.70;59.00;;;;;;4092411;28;19922;-87
2023/05/01 04:22:38;;;;;;;;;;;3.70;58.90;;;;;;4106336;28;19914;-85
2023/05/01 04:24:42;;;;;;;;;;;3.70;58.60;;;;;;4109465;28;19981;-84
2023/05/01 04:26:43;;;;;;;;;;;3.80;58.40;;;;;;4093192;28;20636;-87
2023/05/01 04:28:49;;;;;;;;;;;3.80;58.80;;;;;;4104323;28;19914;-85
2023/05/01 04:31:08;;;;;;;;;;;3.90;58.80;;;;;;4119402;28;19922;-84
2023/05/01 04:33:18;;;;;;;;;;;3.90;58.90;;;;;;4109223;28;19922;-85
2023/05/01 04:35:21;;;;;;;;;;;3.90;58.90;;;;;;4112690;28;20965;-87
2023/05/01 04:37:42;;;;;;;;;;;3.90;59.00;;;;;;4126348;28;20392;-88
2023/05/01 04:39:55;;;;;;;;;;;4.00;59.10;;;;;;4109866;28;19918;-85
2023/05/01 04:42:01;;;;;;;;;;;3.90;59.20;;;;;;4125470;28;19973;-86
2023/05/01 04:44:29;;;;;;;;;;;4.10;59.70;;;;;;4107849;28;19918;-85
2023/05/01 04:46:53;;;;;;;;;;;4.20;59.80;;;;;;4104094;28;19973;-85
2023/05/01 04:49:17;;;;;;;;;;;4.30;60.00;;;;;;4103365;28;19914;-87
2023/05/01 04:51:19;;;;;;;;;;;4.30;60.10;;;;;;4108913;28;19919;-87
2023/05/01 04:53:32;;;;;;;;;;;4.40;59.90;;;;;;4090731;28;19970;-85
2023/05/01 04:55:43;;;;;;;;;;;4.50;60.20;;;;;;4102700;28;19980;-85
2023/05/01 04:57:44;;;;;;;;;;;4.60;60.10;;;;;;4108122;28;19925;-85
2023/05/01 05:00:07;;;;;;;;;;;4.70;59.90;;;;;;4117957;28;19924;-85
2023/05/01 05:02:32;;;;;;;;;;;;;;;;;;;;;
2023/05/01 05:04:56;;;;;;;;;;;4.90;61.00;;;;;;4096161;28;19923;-85
2023/05/01 05:07:28;;;;;;;;;;;5.00;61.20;;;;;;4122825;28;19977;-86
2023/05/01 05:09:59;;;;;;;;;;;5.10;62.40;;;;;;4108974;28;19968;-84
2023/05/01 05:12:28;;;;;;;;;;;5.20;60.90;;;;;;4117817;28;20078;-84
2023/05/01 05:14:57;;;;;;;;;;;5.30;61.20;;;;;;4107943;28;19926;-85
2023/05/01 05:17:20;;;;;;;;;;;5.30;61.20;;;;;;4118261;28;19918;-85
2023/05/01 05:19:55;;;;;;;;;;;5.60;60.80;;;;;;4106723;28;19922;-85
2023/05/01 05:21:58;;;;;;;;;;;5.60;61.30;;;;;;4106570;28;20247;-85
2023/05/01 05:24:06;;;;;;;;;;;5.60;61.10;;;;;;4106331;28;19923;-85
2023/05/01 05:26:14;;;;;;;;;;;5.80;61.60;;;;;;4090124;28;19969;-84
2023/05/01 05:28:27;;;;;;;;;;;5.80;61.60;;;;;;4093515;28;19918;-86
2023/05/01 05:30:34;;;;;;;;;;;6.00;62.20;;;;;;4104473;28;19918;-88
2023/05/01 05:32:34;;;;;;;;;;;6.00;62.00;;;;;;4102630;28;19918;-86
2023/05/01 05:34:37;;;;;;;;;;;6.10;62.30;;;;;;4118492;28;20367;-84
2023/05/01 05:36:47;;;;;;;;;;;6.20;62.50;;;;;;4107978;28;20030;-87
2023/05/01 05:39:07;;;;;;;;;;;6.30;62.90;;;;;;4120977;28;19918;-85
2023/05/01 05:41:16;;;;;;;;;;;6.40;62.70;;;;;;4104562;28;19945;-86
2023/05/01 05:44:08;;;;;;;;;;;6.50;62.40;;;;;;4103325;28;20000;-88
2023/05/01 05:46:34;;;;;;;;;;;6.60;62.80;;;;;;4008218;29;19916;-87
2023/05/01 05:48:53;;;;;;;;;;;6.80;63.00;;;;;;4022113;29;19919;-85
2023/05/01 05:51:01;;;;;;;;;;;6.90;62.40;;;;;;4041812;29;19919;-85
2023/05/01 05:53:02;;;;;;;;;;;6.90;62.70;;;;;;4024822;29;20297;-84
2023/05/01 05:55:18;;;;;;;;;;;7.00;61.50;;;;;;4022000;29;20365;-87
2023/05/01 05:57:36;;;;;;;;;;;7.20;60.70;;;;;;4027353;29;19920;-86
2023/05/01 05:59:56;;;;;;;;;;;7.30;60.60;;;;;;4021522;29;20125;-85
2023/05/01 06:02:02;;;;;;;;;;;7.30;61.30;;;;;;4027840;29;19920;-85
2023/05/01 06:04:31;;;;;;;;;;;7.40;61.20;;;;;;4029434;29;19998;-85
2023/05/01 06:07:12;;;;;;;;;;;7.60;60.80;;;;;;4044981;29;19948;-85
2023/05/01 06:09:38;;;;;;;;;;;7.70;61.20;;;;;;4011464;29;20537;-87
2023/05/01 06:12:15;;;;;;;;;;;7.70;61.90;;;;;;4044920;29;20280;-85
2023/05/01 06:14:39;;;;;;;;;;;7.90;61.60;;;;;;4035379;29;19961;-84
2023/05/01 06:17:01;;;;;;;;;;;8.10;61.50;;;;;;4044097;29;20017;-86
2023/05/01 06:19:21;;;;;;;;;;;8.20;62.40;;;;;;4026947;29;20009;-85
2023/05/01 06:22:06;;;;;;;;;;;;;;;;;;;;;
2023/05/01 06:24:27;;;;;;;;;;;8.50;62.70;;;;;;4122662;28;19925;-85
2023/05/01 06:26:52;;;;;;;;;;;8.70;63.00;;;;;;4122868;28;20291;-85
2023/05/01 06:29:18;;;;;;;;;;;8.80;62.60;;;;;;4106025;28;20056;-86
2023/05/01 06:31:42;;;;;;;;;;;8.90;61.30;;;;;;4118127;28;19922;-85
2023/05/01 06:34:03;;;;;;;;;;;9.20;60.30;;;;;;4107388;28;20200;-86
2023/05/01 06:39:10;;;;;;;;;;;9.40;59.60;;;;;;4161942;22;19936;-87
2023/05/01 06:41:31;;;;;;;;;;;9.50;59.70;;;;;;4136548;28;19917;-85
2023/05/01 06:44:27;;;;;;;;;;;9.60;59.30;;;;;;4132317;28;19914;-85
2023/05/01 06:46:34;;;;;;;;;;;9.70;59.20;;;;;;4137257;28;19917;-86
2023/05/01 06:48:55;;;;;;;;;;;9.80;59.00;;;;;;4121826;28;19961;-85
2023/05/01 06:51:05;;;;;;;;;;;9.80;58.50;;;;;;4108194;28;19922;-88
2023/05/01 06:53:05;;;;;;;;;;;10.00;58.40;;;;;;4097094;28;20421;-84
2023/05/01 06:55:19;;;;;;;;;;;10.00;58.70;;;;;;4110419;28;20009;-85
2023/05/01 06:57:26;;;;;;;;;;;10.10;58.60;;;;;;4110353;28;20011;-85
2023/05/01 06:59:29;;;;;;;;;;;10.20;58.90;;;;;;4108539;28;20635;-85
2023/05/01 07:01:35;;;;;;;;;;;10.30;58.50;;;;;;4103123;28;19920;-85
2023/05/01 07:03:40;;;;;;;;;;;10.40;58.40;;;;;;4100180;28;20081;-85
2023/05/01 07:05:48;;;;;;;;;;;10.50;58.10;;;;;;4100871;28;19936;-86
2023/05/01 07:08:05;;;;;;;;;;;10.60;58.00;;;;;;4101354;28;19926;-87
2023/05/01 07:10:12;;;;;;;;;;;10.60;57.80;;;;;;4106889;28;20551;-86
2023/05/01 07:12:19;;;;;;;;;;;10.70;57.70;;;;;;4101788;28;19917;-88
2023/05/01 07:14:30;;;;;;;;;;;10.70;57.70;;;;;;4116342;28;19972;-86
2023/05/01 07:16:40;;;;;;;;;;;10.80;57.30;;;;;;4114511;28;20151;-86
2023/05/01 07:18:52;;;;;;;;;;;10.90;57.00;;;;;;4141055;23;19934;-85
2023/05/01 07:20:58;;;;;;;;;;;11.00;56.90;;;;;;4114999;28;20458;-86
2023/05/01 07:23:01;;;;;;;;;;;11.10;56.80;;;;;;4097043;28;20373;-85
2023/05/01 07:25:11;;;;;;;;;;;11.20;56.50;;;;;;4096765;28;19923;-86
2023/05/01 07:27:20;;;;;;;;;;;11.20;56.40;;;;;;4097358;28;19922;-88
2023/05/01 07:29:20;;;;;;;;;;;11.30;56.30;;;;;;4093751;28;20155;-87
2023/05/01 07:31:28;;;;;;;;;;;11.50;56.10;;;;;;4095356;28;20367;-85
2023/05/01 07:33:42;;;;;;;;;;;11.50;56.00;;;;;;4116194;28;20844;-86
2023/05/01 07:35:47;;;;;;;;;;;11.60;55.70;;;;;;4101319;28;19965;-86
2023/05/01 07:37:51;;;;;;;;;;;11.60;55.60;;;;;;4098089;28;20156;-85
2023/05/01 07:39:55;;;;;;;;;;;11.70;55.10;;;;;;4096608;28;19962;-85
2023/05/01 07:42:07;;;;;;;;;;;11.80;54.90;;;;;;4098929;28;19920;-85
2023/05/01 07:44:30;;;;;;;;;;;11.90;54.90;;;;;;4097202;28;19922;-85
2023/05/01 07:46:41;;;;;;;;;;;12.00;54.60;;;;;;4098084;28;19970;-85
2023/05/01 07:48:43;;;;;;;;;;;12.10;54.40;;;;;;4096884;28;20573;-86
2023/05/01 07:50:45;;;;;;;;;;;12.20;54.50;;;;;;4098424;28;19937;-85
2023/05/01 07:52:48;;;;;;;;;;;12.30;54.10;;;;;;4081449;28;19930;-85
2023/05/01 07:54:57;;;;;;;;;;;12.40;54.10;;;;;;4090058;28;19929;-86
2023/05/01 07:57:13;;;;;;;;;;;12.50;53.70;;;;;;4100649;28;19922;-86
2023/05/01 07:59:25;;;;;;;;;;;12.60;52.30;;;;;;4096238;28;19918;-85
2023/05/01 08:04:23;;;;;;;;;;;12.80;52.80;;;;;;4114282;28;19953;-87
2023/05/01 08:06:32;;;;;;;;;;;12.80;51.40;;;;;;4100216;28;19925;-86
2023/05/01 08:08:33;;;;;;;;;;;12.90;50.00;;;;;;4100114;28;19922;-88
2023/05/01 08:10:34;;;;;;;;;;;13.00;51.40;;;;;;4098210;28;19918;-86
2023/05/01 08:12:51;;;;;;;;;;;13.10;50.80;;;;;;4086121;28;20035;-86
2023/05/01 08:15:00;;;;;;;;;;;13.20;49.70;;;;;;4114404;28;19925;-86
2023/05/01 08:17:06;;;;;;;;;;;13.30;49.60;;;;;;4081627;28;20416;-86
2023/05/01 08:19:15;;;;;;;;;;;13.40;51.00;;;;;;4080697;28;19953;-85
2023/05/01 08:21:22;;;;;;;;;;;13.50;51.80;;;;;;4115779;28;19960;-88
2023/05/01 08:23:35;;;;;;;;;;;13.70;49.70;;;;;;4097621;28;19925;-86
2023/05/01 08:25:36;;;;;;;;;;;13.70;50.10;;;;;;4115272;28;19980;-85
2023/05/01 08:27:46;;;;;;;;;;;13.80;48.40;;;;;;4100766;28;19922;-87
2023/05/01 08:29:57;;;;;;;;;;;13.90;49.70;;;;;;4083148;28;20018;-85
2023/05/01 08:32:16;;;;;;;;;;;14.00;50.30;;;;;;4081295;28;20320;-88
2023/05/01 08:34:30;;;;;;;;;;;;;;;;;;;;;
2023/05/01 08:36:37;;;;;;;;;;;14.30;50.80;;;;;;4051131;28;19966;-85
2023/05/01 08:38:49;;;;;;;;;;;14.40;49.50;;;;;;4092318;28;20447;-87
2023/05/01 08:41:02;;;;;;;;;;;14.50;45.70;;;;;;4095783;28;19914;-85
2023/05/01 08:43:39;;;;;;;;;;;14.60;46.60;;;;;;4099669;28;19928;-85
2023/05/01 08:46:25;;;;;;;;;;;14.70;43.70;;;;;;4103231;28;19925;-86
2023/05/01 08:48:57;;;;;;;;;;;14.80;42.30;;;;;;4066241;29;19957;-88
2023/05/01 08:52:02;;;;;;;;;;;14.90;43.50;;;;;;4020114;29;20833;-88
2023/05/01 08:54:07;;;;;;;;;;;15.00;45.70;;;;;;4023319;29;19919;-87
2023/05/01 08:56:19;;;;;;;;;;;15.10;44.90;;;;;;4011920;29;19934;-84
2023/05/01 08:58:50;;;;;;;;;;;15.10;42.70;;;;;;3943338;29;21554;-84
2023/05/01 09:00:56;;;;;;;;;;;15.30;44.70;;;;;;4120245;23;20072;-85
2023/05/01 09:02:59;;;;;;;;;;;15.30;42.50;;;;;;4157665;28;19921;-85
2023/05/01 09:05:00;;;;;;;;;;;15.40;41.60;;;;;;4143764;28;19932;-84
2023/05/01 09:07:01;;;;;;;;;;;15.40;39.20;;;;;;4151802;28;20024;-84
2023/05/01 09:09:02;;;;;;;;;;;15.50;40.70;;;;;;4144500;28;19917;-84
2023/05/01 09:11:02;;;;;;;;;;;15.60;42.50;;;;;;4147867;28;19922;-84
2023/05/01 09:13:05;;;;;;;;;;;15.60;42.20;;;;;;4151375;28;20681;-85
2023/05/01 09:15:07;;;;;;;;;;;15.60;38.20;;;;;;4146002;28;19924;-84
2023/05/01 09:17:08;;;;;;;;;;;15.70;39.10;;;;;;4149166;28;19940;-83
2023/05/01 09:19:08;;;;;;;;;;;15.70;38.50;;;;;;4145737;28;19913;-84
2023/05/01 09:21:09;;;;;;;;;;;15.70;38.30;;;;;;4149404;28;19914;-84
2023/05/01 09:23:19;;;;;;;;;;;15.80;39.00;;;;;;4137594;28;20330;-83
2023/05/01 09:25:22;;;;;;;;;;;15.80;39.40;;;;;;4150055;28;19974;-84
2023/05/01 09:27:23;;;;;;;;;;;15.80;38.00;;;;;;4150636;28;19917;-84
2023/05/01 09:29:37;;;;;;;;;;;15.90;38.50;;;;;;4145510;28;19949;-84
2023/05/01 09:31:37;;;;;;;;;;;15.90;39.30;;;;;;4150172;28;19917;-85
2023/05/01 09:33:49;;;;;;;;;;;15.90;36.00;;;;;;4144596;28;21451;-83
2023/05/01 09:35:58;;;;;;;;;;;16.00;36.50;;;;;;4142339;28;19922;-83
2023/05/01 09:37:58;;;;;;;;;;;16.00;36.30;;;;;;4145130;28;19917;-85
2023/05/01 09:40:19;;;;;;;;;;;16.10;38.90;;;;;;4146163;28;20083;-81
2023/05/01 09:42:23;;;;;;;;;;;16.10;39.30;;;;;;4144125;28;19917;-85
2023/05/01 09:44:24;;;;;;;;;;;16.20;35.80;;;;;;4136842;28;21495;-84
2023/05/01 09:46:25;;;;;;;;;;;16.20;38.30;;;;;;4145534;28;19925;-86
2023/05/01 09:48:25;;;;;;;;;;;16.20;38.20;;;;;;4148669;28;19913;-85
2023/05/01 09:50:30;;;;;;;;;;;16.30;38.50;;;;;;4152297;28;19918;-85
2023/05/01 09:52:32;;;;;;;;;;;16.30;39.20;;;;;;4148760;28;19920;-85
2023/05/01 09:54:33;;;;;;;;;;;16.40;39.20;;;;;;4145041;28;19956;-83
2023/05/01 09:56:44;;;;;;;;;;;16.40;36.40;;;;;;4149726;28;19917;-85
2023/05/01 09:58:46;;;;;;;;;;;16.50;38.00;;;;;;4146629;28;19953;-86
2023/05/01 10:00:55;;;;;;;;;;;16.50;39.60;;;;;;4139051;28;19930;-85
2023/05/01 10:03:11;;;;;;;;;;;16.60;40.10;;;;;;4148753;28;21682;-84
2023/05/01 10:05:12;;;;;;;;;;;16.70;39.90;;;;;;4148388;28;20500;-85
2023/05/01 10:07:13;;;;;;;;;;;16.80;37.90;;;;;;4145979;28;19917;-85
2023/05/01 10:09:25;;;;;;;;;;;16.80;40.10;;;;;;4162587;28;19952;-85
2023/05/01 10:11:26;;;;;;;;;;;16.90;39.40;;;;;;4142978;28;19941;-84
2023/05/01 10:13:27;;;;;;;;;;;16.90;39.00;;;;;;4146756;28;19918;-85
2023/05/01 10:15:37;;;;;;;;;;;17.00;37.20;;;;;;4144639;28;19937;-85
2023/05/01 10:17:38;;;;;;;;;;;17.00;37.60;;;;;;4146266;28;20405;-82
2023/05/01 10:19:39;;;;;;;;;;;17.10;38.60;;;;;;4150312;28;19966;-83
2023/05/01 10:21:40;;;;;;;;;;;17.20;38.20;;;;;;4127491;28;19918;-83
2023/05/01 10:23:40;;;;;;;;;;;17.20;36.80;;;;;;4148821;28;19936;-83
2023/05/01 10:25:42;;;;;;;;;;;17.30;37.30;;;;;;4144701;28;20307;-82
2023/05/01 10:27:43;;;;;;;;;;;17.40;38.60;;;;;;4147256;28;20116;-83
2023/05/01 10:29:45;;;;;;;;;;;17.50;39.40;;;;;;4148776;28;19929;-82
2023/05/01 10:31:45;;;;;;;;;;;17.50;39.90;;;;;;4142321;28;19973;-84
2023/05/01 10:33:46;;;;;;;;;;;17.50;39.20;;;;;;4148837;28;19922;-83
2023/05/01 10:35:53;;;;;;;;;;;17.60;38.00;;;;;;4143354;28;19928;-83
2023/05/01 10:37:57;;;;;;;;;;;17.70;39.10;;;;;;4142354;28;19949;-83
2023/05/01 10:39:57;;;;;;;;;;;17.70;38.00;;;;;;4151035;28;20410;-83
2023/05/01 10:41:58;;;;;;;;;;;17.80;37.00;;;;;;4144686;28;19928;-83
2023/05/01 10:44:17;;;;;;;;;;;17.80;36.70;;;;;;4148192;28;19921;-84
2023/05/01 10:46:17;;;;;;;;;;;17.80;34.10;;;;;;4138338;28;19925;-83
2023/05/01 10:48:37;;;;;;;;;;;17.90;34.60;;;;;;4131604;28;19941;-84
2023/05/01 10:50:56;;;;;;;;;;;17.90;36.60;;;;;;4148139;28;19926;-82
2023/05/01 10:53:11;;;;;;;;;;;17.90;37.20;;;;;;4144276;28;19929;-83
2023/05/01 10:55:31;;;;;;;;;;;18.00;35.70;;;;;;4145193;28;19914;-83
2023/05/01 10:57:42;;;;;;;;;;;18.00;36.80;;;;;;4145713;28;19918;-82
2023/05/01 10:59:58;;;;;;;;;;;18.10;35.80;;;;;;4145328;28;20016;-84
2023/05/01 11:01:59;;;;;;;;;;;18.10;34.90;;;;;;4139370;28;19968;-83
2023/05/01 11:04:02;;;;;;;;;;;18.10;36.40;;;;;;4139874;28;20045;-83
2023/05/01 11:06:03;;;;;;;;;;;18.10;36.20;;;;;;4130467;28;19932;-83
2023/05/01 11:08:22;;;;;;;;;;;18.10;37.00;;;;;;4144257;28;19925;-84
2023/05/01 11:10:26;;;;;;;;;;;18.20;36.20;;;;;;4144304;28;19918;-83
2023/05/01 11:12:44;;;;;;;;;;;18.20;37.00;;;;;;4141026;28;19989;-82
2023/05/01 11:15:02;;;;;;;;;;;18.20;33.40;;;;;;4148156;28;19914;-83
2023/05/01 11:17:03;;;;;;;;;;;18.20;36.00;;;;;;4151444;28;19954;-84
2023/05/01 11:19:03;;;;;;;;;;;18.30;36.20;;;;;;4146132;28;19925;-83
2023/05/01 11:21:04;;;;;;;;;;;18.30;37.20;;;;;;4129693;28;19909;-84
2023/05/01 11:23:05;;;;;;;;;;;18.40;37.50;;;;;;4142038;28;19924;-82
2023/05/01 11:25:19;;;;;;;;;;;18.50;35.50;;;;;;4142016;28;19918;-83
2023/05/01 11:27:20;;;;;;;;;;;18.50;36.90;;;;;;4134345;28;19914;-82
2023/05/01 11:29:21;;;;;;;;;;;18.60;37.20;;;;;;4139680;28;19993;-83
2023/05/01 11:31:23;;;;;;;;;;;18.60;36.20;;;;;;4141330;28;19929;-83
2023/05/01 11:33:24;;;;;;;;;;;18.60;37.20;;;;;;4142275;28;19913;-83
2023/05/01 11:35:26;;;;;;;;;;;18.70;36.80;;;;;;4141667;28;19952;-83
2023/05/01 11:37:38;;;;;;;;;;;18.70;34.50;;;;;;4140164;28;19957;-82
2023/05/01 11:39:45;;;;;;;;;;;18.80;35.00;;;;;;4147865;28;19921;-83
2023/05/01 11:41:46;;;;;;;;;;;18.80;36.20;;;;;;4150670;28;19918;-84
2023/05/01 11:43:47;;;;;;;;;;;18.80;36.60;;;;;;4149043;28;20029;-84
2023/05/01 11:45:50;;;;;;;;;;;18.80;36.50;;;;;;4152313;28;19928;-83
2023/05/01 11:47:51;;;;;;;;;;;18.80;36.50;;;;;;4132674;28;19918;-83
2023/05/01 11:49:52;;;;;;;;;;;18.80;36.30;;;;;;4152020;28;19921;-84
2023/05/01 11:51:59;;;;;;;;;;;18.90;35.00;;;;;;4135815;28;19945;-84
2023/05/01 11:54:20;;;;;;;;;;;18.80;34.40;;;;;;4148026;28;19941;-84
2023/05/01 11:56:41;;;;;;;;;;;18.80;34.60;;;;;;4149501;28;19965;-84
2023/05/01 11:59:12;;;;;;;;;;;18.80;35.40;;;;;;4147939;28;19918;-84
2023/05/01 12:01:36;;;;;;;;;;;18.80;34.50;;;;;;4151173;28;19925;-84
2023/05/01 12:03:45;;;;;;;;;;;18.80;33.40;;;;;;4145202;28;19949;-83
2023/05/01 12:06:05;;;;;;;;;;;18.90;34.70;;;;;;4146839;28;19975;-84
2023/05/01 12:08:26;;;;;;;;;;;18.80;35.60;;;;;;4147532;28;19918;-84
2023/05/01 12:10:47;;;;;;;;;;;18.80;35.40;;;;;;4154745;28;19930;-83
2023/05/01 12:13:09;;;;;;;;;;;18.80;35.60;;;;;;4150585;28;19901;-84
2023/05/01 12:15:31;;;;;;;;;;;18.90;34.90;;;;;;4155181;28;19917;-84
2023/05/01 12:17:52;;;;;;;;;;;18.90;33.10;;;;;;4150070;28;19982;-84
2023/05/01 12:20:12;;;;;;;;;;;18.90;33.80;;;;;;4149582;28;19921;-84
2023/05/01 12:22:33;;;;;;;;;;;18.90;33.80;;;;;;4151618;28;19921;-83
2023/05/01 12:24:33;;;;;;;;;;;18.90;34.30;;;;;;4147084;28;19925;-84
2023/05/01 12:26:34;;;;;;;;;;;18.90;33.70;;;;;;4151251;28;20013;-84
2023/05/01 12:28:36;;;;;;;;;;;18.90;33.40;;;;;;4145774;28;20005;-84
2023/05/01 12:30:37;;;;;;;;;;;18.90;34.10;;;;;;4159376;28;19902;-84
2023/05/01 12:32:39;;;;;;;;;;;18.90;33.70;;;;;;4150255;28;19914;-84
2023/05/01 12:34:39;;;;;;;;;;;18.90;34.10;;;;;;4146714;28;19923;-83
2023/05/01 12:36:40;;;;;;;;;;;18.90;34.20;;;;;;4151246;28;19917;-84
2023/05/01 12:38:40;;;;;;;;;;;18.90;34.60;;;;;;4148396;28;19925;-85
2023/05/01 12:40:51;;;;;;;;;;;18.90;34.30;;;;;;4149225;28;19922;-84
2023/05/01 12:42:56;;;;;;;;;;;19.00;34.60;;;;;;4147748;28;20021;-83
2023/05/01 12:44:59;;;;;;;;;;;19.00;34.90;;;;;;4148705;28;19925;-84
2023/05/01 12:47:02;;;;;;;;;;;19.00;32.70;;;;;;4142367;28;19918;-83
2023/05/01 12:49:03;;;;;;;;;;;19.00;33.10;;;;;;4151239;28;19910;-84
2023/05/01 12:51:05;;;;;;;;;;;19.10;32.90;;;;;;4166818;28;19913;-84
2023/05/01 12:53:06;;;;;;;;;;;19.00;33.20;;;;;;4152704;28;19922;-84
2023/05/01 12:55:08;;;;;;;;;;;19.00;33.90;;;;;;4147631;28;19921;-84
2023/05/01 12:57:30;;;;;;;;;;;19.10;33.90;;;;;;4146955;28;20541;-84
2023/05/01 13:00:00;;;;;;;;;;;19.10;33.90;;;;;;4151854;28;19952;-84
2023/05/01 13:02:10;;;;;;;;;;;19.00;33.50;;;;;;4154914;28;19921;-83
2023/05/01 13:04:13;;;;;;;;;;;19.00;33.80;;;;;;4153085;28;19929;-84
2023/05/01 13:06:32;;;;;;;;;;;19.00;33.30;;;;;;4137896;28;19913;-84
2023/05/01 13:08:35;;;;;;;;;;;19.00;33.60;;;;;;4145661;28;19924;-84
2023/05/01 13:10:35;;;;;;;;;;;18.90;33.00;;;;;;4143223;28;19957;-84
2023/05/01 13:12:58;;;;;;;;;;;18.90;32.60;;;;;;4144835;28;19914;-83
2023/05/01 13:14:59;;;;;;;;;;;18.90;33.20;;;;;;4148445;28;19952;-84
2023/05/01 13:17:06;;;;;;;;;;;18.90;33.50;;;;;;4135328;28;19977;-83
2023/05/01 13:19:13;;;;;;;;;;;18.90;32.20;;;;;;4144538;28;19918;-84
2023/05/01 13:21:25;;;;;;;;;;;18.90;33.30;;;;;;4151589;28;19921;-84
2023/05/01 13:23:28;;;;;;;;;;;18.80;33.30;;;;;;4134184;28;20013;-83
2023/05/01 13:25:29;;;;;;;;;;;18.80;33.50;;;;;;4147007;28;19918;-84